Time,TemperatureF,DewpointF,PressureIn,WindDirection,WindDirectionDegrees,WindSpeedMPH,WindSpeedGustMPH,Humidity,HourlyPrecipIn,Conditions,Clouds,dailyrainin,SoftwareType,DateUTC
2013-09-17 00:20:00,74.8,70.0,30.05,SSE,155,0.0,0.0,85,0.00,,,0.00,weatherlink.com 1.10,2013-09-17 05:20:00,
2013-09-17 00:35:00,74.4,70.0,30.06,SSE,155,0.0,0.0,86,0.00,,,0.00,weatherlink.com 1.10,2013-09-17 05:35:00,
2013-09-17 00:50:00,74.0,70.0,30.05,SSE,167,0.0,0.0,87,0.00,,,0.00,weatherlink.com 1.10,2013-09-17 05:50:00,
2013-09-17 01:05:00,73.5,70.0,30.06,SSE,167,0.0,0.0,87,0.00,,,0.00,weatherlink.com 1.10,2013-09-17 06:05:00,
2013-09-17 01:20:00,73.1,69.0,30.05,SSE,167,0.0,0.0,88,0.00,,,0.00,weatherlink.com 1.10,2013-09-17 06:20:00,
2013-09-17 01:35:00,72.9,69.0,30.05,SSE,167,0.0,1.0,88,0.00,,,0.00,weatherlink.com 1.10,2013-09-17 06:35:00,
2013-09-17 01:50:00,72.3,69.0,30.05,SSE,167,0.0,0.0,90,0.00,,,0.00,weatherlink.com 1.10,2013-09-17 06:50:00,
2013-09-17 02:05:00,72.0,69.0,30.05,SSE,167,0.0,0.0,90,0.00,,,0.00,weatherlink.com 1.10,2013-09-17 07:05:00,
2013-09-17 02:20:00,71.8,69.0,30.05,SSE,167,0.0,0.0,90,0.00,,,0.00,weatherlink.com 1.10,2013-09-17 07:20:00,
2013-09-17 02:35:00,71.5,69.0,30.05,SSE,167,0.0,1.0,91,0.00,,,0.00,weatherlink.com 1.10,2013-09-17 07:35:00,
2013-09-17 02:50:00,71.5,69.0,30.05,SSE,167,0.0,0.0,91,0.00,,,0.00,weatherlink.com 1.10,2013-09-17 07:50:00,
2013-09-17 03:05:00,71.2,69.0,30.05,SSE,167,0.0,0.0,92,0.00,,,0.00,weatherlink.com 1.10,2013-09-17 08:05:00,
2013-09-17 03:20:00,71.1,69.0,30.04,SSE,167,0.0,0.0,92,0.00,,,0.00,weatherlink.com 1.10,2013-09-17 08:20:00,
2013-09-17 03:35:00,70.8,68.0,30.05,SSE,167,0.0,0.0,92,0.00,,,0.00,weatherlink.com 1.10,2013-09-17 08:35:00,
2013-09-17 04:21:00,70.3,68.0,30.05,SSE,167,0.0,0.0,93,0.00,,,0.00,weatherlink.com 1.10,2013-09-17 09:21:00,
2013-09-17 04:36:00,70.2,68.0,30.04,SSE,167,0.0,0.0,93,0.00,,,0.00,weatherlink.com 1.10,2013-09-17 09:36:00,
2013-09-17 04:51:00,70.2,68.0,30.04,SSE,167,0.0,0.0,93,0.00,,,0.00,weatherlink.com 1.10,2013-09-17 09:51:00,
2013-09-17 05:06:00,69.9,68.0,30.04,SSE,167,0.0,0.0,93,0.00,,,0.00,weatherlink.com 1.10,2013-09-17 10:06:00,
2013-09-17 05:21:00,69.6,68.0,30.05,SSE,167,0.0,0.0,93,0.00,,,0.00,weatherlink.com 1.10,2013-09-17 10:21:00,
2013-09-17 05:36:00,69.2,68.0,30.05,SSE,167,0.0,0.0,94,0.00,,,0.00,weatherlink.com 1.10,2013-09-17 10:36:00,
2013-09-17 05:51:00,69.0,67.0,30.05,SSE,167,0.0,0.0,94,0.00,,,0.00,weatherlink.com 1.10,2013-09-17 10:51:00,
2013-09-17 06:06:00,68.9,67.0,30.06,SE,143,0.0,1.0,94,0.00,,,0.00,weatherlink.com 1.10,2013-09-17 11:06:00,
2013-09-17 06:21:00,68.7,67.0,30.06,SE,143,0.0,1.0,94,0.00,,,0.00,weatherlink.com 1.10,2013-09-17 11:21:00,
2013-09-17 06:36:00,68.6,67.0,30.06,SE,143,0.0,1.0,94,0.00,,,0.00,weatherlink.com 1.10,2013-09-17 11:36:00,
2013-09-17 06:51:00,68.6,67.0,30.07,ESE,122,0.0,1.0,94,0.00,,,0.00,weatherlink.com 1.10,2013-09-17 11:51:00,
2013-09-17 07:06:00,68.9,67.0,30.07,NE,34,0.0,2.0,93,0.00,,,0.00,weatherlink.com 1.10,2013-09-17 12:06:00,
2013-09-17 07:21:00,69.7,67.0,30.07,NNE,32,0.0,3.0,92,0.00,,,0.00,weatherlink.com 1.10,2013-09-17 12:21:00,
2013-09-17 07:36:00,70.4,68.0,30.07,NE,46,1.0,1.0,91,0.00,,,0.00,weatherlink.com 1.10,2013-09-17 12:36:00,
2013-09-17 07:51:00,71.3,68.0,30.07,ENE,63,4.0,4.0,90,0.00,,,0.00,weatherlink.com 1.10,2013-09-17 12:51:00,
2013-09-17 08:06:00,71.8,69.0,30.08,NE,46,1.0,1.0,89,0.00,,,0.00,weatherlink.com 1.10,2013-09-17 13:06:00,
2013-09-17 08:21:00,72.4,69.0,30.08,NE,50,0.0,2.0,88,0.00,,,0.00,weatherlink.com 1.10,2013-09-17 13:21:00,
2013-09-17 08:36:00,73.8,69.0,30.09,NE,50,0.0,1.0,86,0.00,,,0.00,weatherlink.com 1.10,2013-09-17 13:36:00,
2013-09-17 08:51:00,75.8,71.0,30.09,NNE,23,0.0,1.0,84,0.00,,,0.00,weatherlink.com 1.10,2013-09-17 13:51:00,
2013-09-17 09:06:00,77.5,70.0,30.09,North,10,1.0,3.0,78,0.00,,,0.00,weatherlink.com 1.10,2013-09-17 14:06:00,
2013-09-17 09:21:00,79.0,69.0,30.09,NNE,29,0.0,3.0,72,0.00,,,0.00,weatherlink.com 1.10,2013-09-17 14:21:00,
2013-09-17 09:36:00,80.7,69.0,30.10,NNE,13,2.0,3.0,67,0.00,,,0.00,weatherlink.com 1.10,2013-09-17 14:36:00,
2013-09-17 09:51:00,82.0,69.0,30.10,North,5,1.0,5.0,65,0.00,,,0.00,weatherlink.com 1.10,2013-09-17 14:51:00,
2013-09-17 10:06:00,84.6,68.0,30.10,SSE,148,2.0,4.0,58,0.00,,,0.00,weatherlink.com 1.10,2013-09-17 15:06:00,
2013-09-17 10:22:00,86.1,69.0,30.10,NE,46,0.0,2.0,56,0.00,,,0.00,weatherlink.com 1.10,2013-09-17 15:22:00,
2013-09-17 10:37:00,86.8,68.0,30.10,ENE,77,1.0,4.0,54,0.00,,,0.00,weatherlink.com 1.10,2013-09-17 15:37:00,
2013-09-17 10:52:00,87.2,67.0,30.10,East,79,1.0,6.0,51,0.00,,,0.00,weatherlink.com 1.10,2013-09-17 15:52:00,
2013-09-17 11:07:00,87.9,69.0,30.10,ENE,60,1.0,8.0,53,0.00,,,0.00,weatherlink.com 1.10,2013-09-17 16:07:00,
2013-09-17 11:22:00,88.3,67.0,30.09,ESE,120,1.0,6.0,50,0.00,,,0.00,weatherlink.com 1.10,2013-09-17 16:22:00,
2013-09-17 11:37:00,89.6,67.0,30.09,ENE,77,1.0,3.0,48,0.00,,,0.00,weatherlink.com 1.10,2013-09-17 16:37:00,
2013-09-17 11:52:00,90.3,66.0,30.09,ENE,70,3.0,4.0,45,0.00,,,0.00,weatherlink.com 1.10,2013-09-17 16:52:00,
2013-09-17 12:07:00,91.0,67.0,30.08,WNW,298,0.0,4.0,45,0.00,,,0.00,weatherlink.com 1.10,2013-09-17 17:07:00,
2013-09-17 12:22:00,90.5,66.0,30.08,NNW,332,3.0,4.0,44,0.00,,,0.00,weatherlink.com 1.10,2013-09-17 17:22:00,
2013-09-17 12:37:00,90.1,65.0,30.07,SE,141,1.0,5.0,44,0.00,,,0.00,weatherlink.com 1.10,2013-09-17 17:37:00,
2013-09-17 12:52:00,90.8,65.0,30.07,ENE,65,0.0,4.0,43,0.00,,,0.00,weatherlink.com 1.10,2013-09-17 17:52:00,
2013-09-17 13:07:00,91.5,65.0,30.06,SSE,152,0.0,4.0,42,0.00,,,0.00,weatherlink.com 1.10,2013-09-17 18:07:00,
2013-09-17 13:22:00,92.3,65.0,30.05,SE,136,1.0,5.0,41,0.00,,,0.00,weatherlink.com 1.10,2013-09-17 18:22:00,
2013-09-17 13:52:00,91.8,65.0,30.04,ENE,77,0.0,4.0,41,0.00,,,0.00,weatherlink.com 1.10,2013-09-17 18:52:00,
2013-09-17 14:07:00,91.8,65.0,30.03,North,5,3.0,7.0,41,0.00,,,0.00,weatherlink.com 1.10,2013-09-17 19:07:00,
2013-09-17 14:22:00,92.0,64.0,30.02,West,267,0.0,4.0,40,0.00,,,0.00,weatherlink.com 1.10,2013-09-17 19:22:00,
2013-09-17 14:37:00,91.2,64.0,30.02,SE,143,3.0,3.0,40,0.00,,,0.00,weatherlink.com 1.10,2013-09-17 19:37:00,
2013-09-17 14:52:00,92.8,63.0,30.01,NW,316,0.0,5.0,37,0.00,,,0.00,weatherlink.com 1.10,2013-09-17 19:52:00,
2013-09-17 15:08:00,93.8,65.0,30.01,SSE,159,3.0,5.0,38,0.00,,,0.00,weatherlink.com 1.10,2013-09-17 20:08:00,
2013-09-17 15:23:00,94.9,64.0,30.00,SSE,160,0.0,4.0,36,0.00,,,0.00,weatherlink.com 1.10,2013-09-17 20:23:00,
2013-09-17 15:38:00,94.6,65.0,29.99,SE,134,0.0,3.0,37,0.00,,,0.00,weatherlink.com 1.10,2013-09-17 20:38:00,
2013-09-17 15:53:00,94.7,65.0,29.99,NE,49,3.0,4.0,38,0.00,,,0.00,weatherlink.com 1.10,2013-09-17 20:53:00,
2013-09-17 16:08:00,93.0,65.0,29.99,SE,138,2.0,6.0,40,0.00,,,0.00,weatherlink.com 1.10,2013-09-17 21:08:00,
2013-09-17 16:23:00,93.5,66.0,29.98,ENE,76,0.0,4.0,40,0.00,,,0.00,weatherlink.com 1.10,2013-09-17 21:23:00,
2013-09-17 16:38:00,93.9,66.0,29.98,NNE,26,1.0,5.0,40,0.00,,,0.00,weatherlink.com 1.10,2013-09-17 21:38:00,
2013-09-17 16:53:00,93.4,66.0,29.97,South,187,2.0,4.0,41,0.00,,,0.00,weatherlink.com 1.10,2013-09-17 21:53:00,
2013-09-17 17:08:00,93.4,66.0,29.97,ESE,110,2.0,4.0,41,0.00,,,0.00,weatherlink.com 1.10,2013-09-17 22:08:00,
2013-09-17 17:23:00,92.9,67.0,29.97,ENE,68,0.0,4.0,42,0.00,,,0.00,weatherlink.com 1.10,2013-09-17 22:23:00,
2013-09-17 17:38:00,91.6,66.0,29.97,East,79,1.0,4.0,43,0.00,,,0.00,weatherlink.com 1.10,2013-09-17 22:38:00,
2013-09-17 17:53:00,90.8,65.0,29.97,SE,126,0.0,2.0,43,0.00,,,0.00,weatherlink.com 1.10,2013-09-17 22:53:00,
2013-09-17 18:08:00,90.4,66.0,29.97,SE,136,0.0,3.0,44,0.00,,,0.00,weatherlink.com 1.10,2013-09-17 23:08:00,
2013-09-17 18:23:00,88.9,66.0,29.98,SE,135,0.0,2.0,46,0.00,,,0.00,weatherlink.com 1.10,2013-09-17 23:23:00,
2013-09-17 18:38:00,87.7,66.0,29.98,SE,125,0.0,0.0,48,0.00,,,0.00,weatherlink.com 1.10,2013-09-17 23:38:00,
2013-09-17 18:53:00,86.5,66.0,29.98,SE,126,0.0,0.0,50,0.00,,,0.00,weatherlink.com 1.10,2013-09-17 23:53:00,
2013-09-17 19:08:00,85.3,66.0,29.98,SE,125,0.0,0.0,53,0.00,,,0.00,weatherlink.com 1.10,2013-09-18 00:08:00,
2013-09-17 19:23:00,83.9,66.0,29.99,SE,125,0.0,0.0,56,0.00,,,0.00,weatherlink.com 1.10,2013-09-18 00:23:00,
2013-09-17 19:38:00,82.5,67.0,29.99,SE,125,0.0,0.0,60,0.00,,,0.00,weatherlink.com 1.10,2013-09-18 00:38:00,
2013-09-17 19:53:00,81.1,67.0,29.99,SE,126,0.0,0.0,62,0.00,,,0.00,weatherlink.com 1.10,2013-09-18 00:53:00,
2013-09-17 20:08:00,80.1,67.0,29.99,SE,125,0.0,0.0,64,0.00,,,0.00,weatherlink.com 1.10,2013-09-18 01:08:00,
2013-09-17 20:23:00,79.3,67.0,30.00,SE,126,0.0,0.0,67,0.00,,,0.00,weatherlink.com 1.10,2013-09-18 01:23:00,
2013-09-17 20:38:00,78.7,67.0,30.00,SE,125,0.0,0.0,68,0.00,,,0.00,weatherlink.com 1.10,2013-09-18 01:38:00,
2013-09-17 20:53:00,78.5,67.0,30.00,SE,126,0.0,0.0,68,0.00,,,0.00,weatherlink.com 1.10,2013-09-18 01:53:00,
2013-09-17 21:08:00,78.5,68.0,30.01,SE,126,0.0,0.0,69,0.00,,,0.00,weatherlink.com 1.10,2013-09-18 02:08:00,
2013-09-17 21:23:00,78.3,67.0,30.01,SE,125,0.0,0.0,68,0.00,,,0.00,weatherlink.com 1.10,2013-09-18 02:23:00,
2013-09-17 21:38:00,78.3,66.0,30.02,SE,125,0.0,0.0,66,0.00,,,0.00,weatherlink.com 1.10,2013-09-18 02:38:00,
2013-09-17 21:53:00,78.8,66.0,30.02,SE,126,0.0,0.0,64,0.00,,,0.00,weatherlink.com 1.10,2013-09-18 02:53:00,
2013-09-17 22:08:00,78.7,65.0,30.02,SE,126,0.0,0.0,64,0.00,,,0.00,weatherlink.com 1.10,2013-09-18 03:08:00,
2013-09-17 22:23:00,78.3,66.0,30.03,SE,126,0.0,0.0,65,0.00,,,0.00,weatherlink.com 1.10,2013-09-18 03:23:00,
2013-09-17 22:38:00,77.8,66.0,30.03,SSE,159,0.0,1.0,68,0.00,,,0.00,weatherlink.com 1.10,2013-09-18 03:38:00,
2013-09-17 22:53:00,77.4,66.0,30.02,SSE,159,0.0,1.0,69,0.00,,,0.00,weatherlink.com 1.10,2013-09-18 03:53:00,
2013-09-17 23:08:00,77.0,67.0,30.03,SSE,159,0.0,0.0,70,0.00,,,0.00,weatherlink.com 1.10,2013-09-18 04:08:00,
2013-09-17 23:23:00,76.2,67.0,30.03,SSE,159,0.0,0.0,72,0.00,,,0.00,weatherlink.com 1.10,2013-09-18 04:23:00,
2013-09-17 23:38:00,75.3,67.0,30.03,SSE,159,0.0,0.0,74,0.00,,,0.00,weatherlink.com 1.10,2013-09-18 04:38:00,
2013-09-17 23:53:00,75.2,67.0,30.03,SSE,159,0.0,0.0,75,0.00,,,0.00,weatherlink.com 1.10,2013-09-18 04:53:00,